Terminal Aerodrome Forecast
Issued by NWS Wilmington, OH

Current Version | Previous Version | Graphics & Text | Print | Product List | Glossary On
Versions: 1 2 3 4 5 6 7 8 9 10 11 12 13 14 15 16 17 18 19 20 21 22 23 24 25
595
FTUS41 KILN 052341
TAFCVG
TAF
KCVG 052341Z 0600/0706 06004KT P6SM BKN250
     FM060300 07008KT P6SM BKN120
     FM061000 08008KT P6SM -RA SCT006 OVC025
     FM061300 08006KT 3SM -RA BR OVC006
     FM061800 29009KT P6SM OVC012
     FM070300 30010KT P6SM OVC023=

USA.gov is the U.S. government's official web portal to all federal, state and local government web resources and services.